sensor_id;sensor_type;location;lat;lon;timestamp;P1;durP1;ratioP1;P2;durP2;ratioP2
27857;SDS011;16852;51.446;6.528;2022-10-23T00:01:53;6.63;;;3.00;;
27857;SDS011;16852;51.446;6.528;2022-10-23T00:04:04;7.15;;;3.10;;
27857;SDS011;16852;51.446;6.528;2022-10-23T00:06:15;5.35;;;2.63;;
27857;SDS011;16852;51.446;6.528;2022-10-23T00:08:17;5.40;;;2.95;;
27857;SDS011;16852;51.446;6.528;2022-10-23T00:10:18;4.97;;;2.58;;
27857;SDS011;16852;51.446;6.528;2022-10-23T00:12:19;4.90;;;2.45;;
27857;SDS011;16852;51.446;6.528;2022-10-23T00:14:21;3.65;;;2.30;;
27857;SDS011;16852;51.446;6.528;2022-10-23T00:16:23;4.90;;;2.83;;
27857;SDS011;16852;51.446;6.528;2022-10-23T00:18:23;5.38;;;2.80;;
27857;SDS011;16852;51.446;6.528;2022-10-23T00:20:24;4.70;;;2.70;;
27857;SDS011;16852;51.446;6.528;2022-10-23T00:22:25;5.95;;;2.88;;
27857;SDS011;16852;51.446;6.528;2022-10-23T00:24:25;5.07;;;2.80;;
27857;SDS011;16852;51.446;6.528;2022-10-23T00:26:26;6.70;;;2.60;;
27857;SDS011;16852;51.446;6.528;2022-10-23T00:28:27;6.55;;;3.03;;
27857;SDS011;16852;51.446;6.528;2022-10-23T00:30:27;5.90;;;2.80;;
27857;SDS011;16852;51.446;6.528;2022-10-23T00:32:28;4.95;;;2.58;;
27857;SDS011;16852;51.446;6.528;2022-10-23T00:34:29;7.30;;;2.50;;
27857;SDS011;16852;51.446;6.528;2022-10-23T00:36:29;7.28;;;2.70;;
27857;SDS011;16852;51.446;6.528;2022-10-23T00:38:30;5.93;;;2.83;;
27857;SDS011;16852;51.446;6.528;2022-10-23T00:40:30;6.65;;;2.78;;
27857;SDS011;16852;51.446;6.528;2022-10-23T00:42:31;6.15;;;2.75;;
27857;SDS011;16852;51.446;6.528;2022-10-23T00:46:32;4.47;;;2.30;;
27857;SDS011;16852;51.446;6.528;2022-10-23T00:48:34;5.10;;;2.50;;
27857;SDS011;16852;51.446;6.528;2022-10-23T00:50:34;7.32;;;2.80;;
27857;SDS011;16852;51.446;6.528;2022-10-23T00:52:36;10.32;;;3.13;;
27857;SDS011;16852;51.446;6.528;2022-10-23T00:54:41;7.05;;;2.55;;
27857;SDS011;16852;51.446;6.528;2022-10-23T00:56:43;8.35;;;2.90;;
27857;SDS011;16852;51.446;6.528;2022-10-23T00:58:43;5.03;;;2.90;;
27857;SDS011;16852;51.446;6.528;2022-10-23T01:00:51;4.38;;;2.50;;
27857;SDS011;16852;51.446;6.528;2022-10-23T01:02:54;4.25;;;2.30;;
27857;SDS011;16852;51.446;6.528;2022-10-23T01:04:56;5.05;;;2.38;;
27857;SDS011;16852;51.446;6.528;2022-10-23T01:11:46;9.27;;;2.38;;
27857;SDS011;16852;51.446;6.528;2022-10-23T01:14:06;4.25;;;2.42;;
27857;SDS011;16852;51.446;6.528;2022-10-23T01:16:38;8.32;;;2.75;;
27857;SDS011;16852;51.446;6.528;2022-10-23T01:24:21;5.70;;;2.47;;
27857;SDS011;16852;51.446;6.528;2022-10-23T01:31:34;4.90;;;2.20;;
27857;SDS011;16852;51.446;6.528;2022-10-23T01:33:40;6.93;;;2.40;;
27857;SDS011;16852;51.446;6.528;2022-10-23T01:35:47;6.55;;;2.53;;
27857;SDS011;16852;51.446;6.528;2022-10-23T01:37:52;5.07;;;2.60;;
27857;SDS011;16852;51.446;6.528;2022-10-23T01:39:58;5.72;;;2.55;;
27857;SDS011;16852;51.446;6.528;2022-10-23T01:42:12;6.30;;;2.25;;
27857;SDS011;16852;51.446;6.528;2022-10-23T01:44:20;4.75;;;2.40;;
27857;SDS011;16852;51.446;6.528;2022-10-23T01:46:49;4.03;;;2.28;;
27857;SDS011;16852;51.446;6.528;2022-10-23T01:48:52;5.57;;;2.78;;
27857;SDS011;16852;51.446;6.528;2022-10-23T01:50:54;4.65;;;2.33;;
27857;SDS011;16852;51.446;6.528;2022-10-23T01:52:59;8.00;;;3.15;;
27857;SDS011;16852;51.446;6.528;2022-10-23T01:55:00;6.68;;;2.55;;
27857;SDS011;16852;51.446;6.528;2022-10-23T01:57:01;4.55;;;2.50;;
27857;SDS011;16852;51.446;6.528;2022-10-23T01:59:04;4.97;;;2.50;;
27857;SDS011;16852;51.446;6.528;2022-10-23T02:01:09;5.95;;;2.70;;
27857;SDS011;16852;51.446;6.528;2022-10-23T02:03:12;7.43;;;2.67;;
27857;SDS011;16852;51.446;6.528;2022-10-23T02:05:26;5.43;;;2.90;;
27857;SDS011;16852;51.446;6.528;2022-10-23T02:07:27;5.55;;;2.42;;
27857;SDS011;16852;51.446;6.528;2022-10-23T02:09:30;5.75;;;2.53;;
27857;SDS011;16852;51.446;6.528;2022-10-23T02:11:32;4.88;;;2.10;;
27857;SDS011;16852;51.446;6.528;2022-10-23T02:13:50;7.00;;;2.50;;
27857;SDS011;16852;51.446;6.528;2022-10-23T02:16:21;6.05;;;2.67;;
27857;SDS011;16852;51.446;6.528;2022-10-23T02:20:59;5.72;;;2.63;;
27857;SDS011;16852;51.446;6.528;2022-10-23T02:23:11;3.75;;;2.25;;
27857;SDS011;16852;51.446;6.528;2022-10-23T02:25:34;7.18;;;2.50;;
27857;SDS011;16852;51.446;6.528;2022-10-23T02:27:51;5.70;;;2.60;;
27857;SDS011;16852;51.446;6.528;2022-10-23T02:29:55;5.10;;;2.47;;
27857;SDS011;16852;51.446;6.528;2022-10-23T02:32:00;5.97;;;2.05;;
27857;SDS011;16852;51.446;6.528;2022-10-23T02:34:01;3.90;;;2.00;;
27857;SDS011;16852;51.446;6.528;2022-10-23T02:36:02;4.85;;;2.20;;
27857;SDS011;16852;51.446;6.528;2022-10-23T02:38:25;4.95;;;2.53;;
27857;SDS011;16852;51.446;6.528;2022-10-23T02:40:50;4.82;;;2.40;;
27857;SDS011;16852;51.446;6.528;2022-10-23T02:42:54;3.70;;;2.15;;
27857;SDS011;16852;51.446;6.528;2022-10-23T02:45:07;8.63;;;2.53;;
27857;SDS011;16852;51.446;6.528;2022-10-23T02:47:16;4.20;;;2.13;;
27857;SDS011;16852;51.446;6.528;2022-10-23T02:52:03;5.50;;;2.10;;
27857;SDS011;16852;51.446;6.528;2022-10-23T02:56:52;3.55;;;2.38;;
27857;SDS011;16852;51.446;6.528;2022-10-23T02:59:15;6.85;;;2.33;;
27857;SDS011;16852;51.446;6.528;2022-10-23T03:01:25;4.82;;;2.40;;
27857;SDS011;16852;51.446;6.528;2022-10-23T03:03:32;5.93;;;2.10;;
27857;SDS011;16852;51.446;6.528;2022-10-23T03:05:37;3.97;;;2.25;;
27857;SDS011;16852;51.446;6.528;2022-10-23T03:07:39;4.07;;;2.22;;
27857;SDS011;16852;51.446;6.528;2022-10-23T03:09:40;4.30;;;2.42;;
27857;SDS011;16852;51.446;6.528;2022-10-23T03:11:40;5.13;;;2.30;;
27857;SDS011;16852;51.446;6.528;2022-10-23T03:13:41;2.03;;;1.70;;
27857;SDS011;16852;51.446;6.528;2022-10-23T03:15:42;4.35;;;2.45;;
27857;SDS011;16852;51.446;6.528;2022-10-23T03:17:43;6.75;;;2.25;;
27857;SDS011;16852;51.446;6.528;2022-10-23T03:19:43;4.32;;;1.73;;
27857;SDS011;16852;51.446;6.528;2022-10-23T03:21:44;4.78;;;2.45;;
27857;SDS011;16852;51.446;6.528;2022-10-23T03:23:44;4.22;;;2.10;;
27857;SDS011;16852;51.446;6.528;2022-10-23T03:25:45;3.05;;;2.00;;
27857;SDS011;16852;51.446;6.528;2022-10-23T03:27:46;2.78;;;1.65;;
27857;SDS011;16852;51.446;6.528;2022-10-23T03:29:46;3.28;;;1.98;;
27857;SDS011;16852;51.446;6.528;2022-10-23T03:31:47;4.50;;;2.15;;
27857;SDS011;16852;51.446;6.528;2022-10-23T03:33:47;3.28;;;1.80;;
27857;SDS011;16852;51.446;6.528;2022-10-23T03:35:48;7.28;;;2.67;;
27857;SDS011;16852;51.446;6.528;2022-10-23T03:37:49;4.32;;;2.05;;
27857;SDS011;16852;51.446;6.528;2022-10-23T03:39:49;3.58;;;1.77;;
27857;SDS011;16852;51.446;6.528;2022-10-23T03:41:50;3.90;;;2.13;;
27857;SDS011;16852;51.446;6.528;2022-10-23T03:43:50;4.55;;;2.10;;
27857;SDS011;16852;51.446;6.528;2022-10-23T03:45:51;2.38;;;1.77;;
27857;SDS011;16852;51.446;6.528;2022-10-23T03:47:52;2.30;;;1.73;;
27857;SDS011;16852;51.446;6.528;2022-10-23T03:49:52;3.47;;;2.03;;
27857;SDS011;16852;51.446;6.528;2022-10-23T03:51:53;3.00;;;1.83;;
27857;SDS011;16852;51.446;6.528;2022-10-23T03:53:53;5.40;;;1.98;;
27857;SDS011;16852;51.446;6.528;2022-10-23T03:55:54;4.40;;;2.03;;
27857;SDS011;16852;51.446;6.528;2022-10-23T03:57:55;4.35;;;2.20;;
27857;SDS011;16852;51.446;6.528;2022-10-23T03:59:55;3.97;;;2.08;;
27857;SDS011;16852;51.446;6.528;2022-10-23T04:01:56;3.78;;;2.08;;
27857;SDS011;16852;51.446;6.528;2022-10-23T04:03:56;5.22;;;2.20;;
27857;SDS011;16852;51.446;6.528;2022-10-23T04:05:57;3.97;;;1.92;;
27857;SDS011;16852;51.446;6.528;2022-10-23T04:07:58;8.98;;;2.50;;
27857;SDS011;16852;51.446;6.528;2022-10-23T04:09:58;5.93;;;2.42;;
27857;SDS011;16852;51.446;6.528;2022-10-23T04:11:59;4.55;;;1.70;;
27857;SDS011;16852;51.446;6.528;2022-10-23T04:13:59;3.47;;;2.13;;
27857;SDS011;16852;51.446;6.528;2022-10-23T04:16:00;5.07;;;2.03;;
27857;SDS011;16852;51.446;6.528;2022-10-23T04:18:01;4.60;;;2.10;;
27857;SDS011;16852;51.446;6.528;2022-10-23T04:20:02;4.30;;;2.00;;
27857;SDS011;16852;51.446;6.528;2022-10-23T04:22:02;5.93;;;1.80;;
27857;SDS011;16852;51.446;6.528;2022-10-23T04:24:03;3.45;;;1.63;;
27857;SDS011;16852;51.446;6.528;2022-10-23T04:26:04;3.67;;;1.70;;
27857;SDS011;16852;51.446;6.528;2022-10-23T04:28:04;3.50;;;1.40;;
27857;SDS011;16852;51.446;6.528;2022-10-23T04:30:05;4.05;;;1.98;;
27857;SDS011;16852;51.446;6.528;2022-10-23T04:32:06;5.13;;;2.60;;
27857;SDS011;16852;51.446;6.528;2022-10-23T04:34:07;6.28;;;2.55;;
27857;SDS011;16852;51.446;6.528;2022-10-23T04:36:08;4.30;;;2.35;;
27857;SDS011;16852;51.446;6.528;2022-10-23T04:38:08;7.90;;;2.25;;
27857;SDS011;16852;51.446;6.528;2022-10-23T04:40:09;5.68;;;2.20;;
27857;SDS011;16852;51.446;6.528;2022-10-23T04:42:10;5.55;;;2.35;;
27857;SDS011;16852;51.446;6.528;2022-10-23T04:44:10;4.82;;;2.65;;
27857;SDS011;16852;51.446;6.528;2022-10-23T04:46:11;4.82;;;1.88;;
27857;SDS011;16852;51.446;6.528;2022-10-23T04:48:11;5.55;;;2.00;;
27857;SDS011;16852;51.446;6.528;2022-10-23T04:50:12;4.07;;;2.03;;
27857;SDS011;16852;51.446;6.528;2022-10-23T04:52:13;4.25;;;2.25;;
27857;SDS011;16852;51.446;6.528;2022-10-23T04:54:14;5.18;;;1.90;;
27857;SDS011;16852;51.446;6.528;2022-10-23T04:56:14;6.70;;;2.00;;
27857;SDS011;16852;51.446;6.528;2022-10-23T04:58:15;4.70;;;2.15;;
27857;SDS011;16852;51.446;6.528;2022-10-23T05:00:16;4.35;;;2.00;;
27857;SDS011;16852;51.446;6.528;2022-10-23T05:02:17;5.50;;;1.60;;
27857;SDS011;16852;51.446;6.528;2022-10-23T05:04:17;3.38;;;1.77;;
27857;SDS011;16852;51.446;6.528;2022-10-23T05:06:19;5.45;;;1.85;;
27857;SDS011;16852;51.446;6.528;2022-10-23T05:08:20;5.45;;;2.05;;
27857;SDS011;16852;51.446;6.528;2022-10-23T05:10:21;4.38;;;1.65;;
27857;SDS011;16852;51.446;6.528;2022-10-23T05:12:22;5.85;;;1.98;;
27857;SDS011;16852;51.446;6.528;2022-10-23T05:14:24;3.72;;;1.80;;
27857;SDS011;16852;51.446;6.528;2022-10-23T05:16:27;5.88;;;2.13;;
27857;SDS011;16852;51.446;6.528;2022-10-23T05:18:39;4.10;;;2.00;;
27857;SDS011;16852;51.446;6.528;2022-10-23T05:20:45;8.15;;;2.40;;
27857;SDS011;16852;51.446;6.528;2022-10-23T05:22:49;4.75;;;2.30;;
27857;SDS011;16852;51.446;6.528;2022-10-23T05:24:53;4.93;;;2.13;;
27857;SDS011;16852;51.446;6.528;2022-10-23T05:26:54;8.13;;;2.00;;
27857;SDS011;16852;51.446;6.528;2022-10-23T05:28:55;4.53;;;1.98;;
27857;SDS011;16852;51.446;6.528;2022-10-23T05:30:57;4.43;;;2.22;;
27857;SDS011;16852;51.446;6.528;2022-10-23T05:33:00;3.72;;;2.30;;
27857;SDS011;16852;51.446;6.528;2022-10-23T05:35:04;3.97;;;2.33;;
27857;SDS011;16852;51.446;6.528;2022-10-23T05:37:08;4.22;;;1.90;;
27857;SDS011;16852;51.446;6.528;2022-10-23T05:39:10;6.88;;;1.77;;
27857;SDS011;16852;51.446;6.528;2022-10-23T05:41:11;3.10;;;1.88;;
27857;SDS011;16852;51.446;6.528;2022-10-23T05:43:12;4.50;;;1.48;;
27857;SDS011;16852;51.446;6.528;2022-10-23T05:45:12;4.30;;;2.05;;
27857;SDS011;16852;51.446;6.528;2022-10-23T05:47:13;3.38;;;1.95;;
27857;SDS011;16852;51.446;6.528;2022-10-23T05:49:14;3.10;;;1.83;;
27857;SDS011;16852;51.446;6.528;2022-10-23T05:51:14;3.92;;;2.00;;
27857;SDS011;16852;51.446;6.528;2022-10-23T05:53:19;3.55;;;1.90;;
27857;SDS011;16852;51.446;6.528;2022-10-23T05:55:20;4.20;;;1.50;;
27857;SDS011;16852;51.446;6.528;2022-10-23T05:57:20;6.43;;;2.00;;
27857;SDS011;16852;51.446;6.528;2022-10-23T05:59:21;3.92;;;2.00;;
27857;SDS011;16852;51.446;6.528;2022-10-23T06:01:22;7.10;;;2.20;;
27857;SDS011;16852;51.446;6.528;2022-10-23T06:03:22;4.80;;;2.30;;
27857;SDS011;16852;51.446;6.528;2022-10-23T06:05:23;3.45;;;1.48;;
27857;SDS011;16852;51.446;6.528;2022-10-23T06:07:24;5.82;;;1.60;;
27857;SDS011;16852;51.446;6.528;2022-10-23T06:09:26;3.13;;;1.48;;
27857;SDS011;16852;51.446;6.528;2022-10-23T06:11:26;3.58;;;1.60;;
27857;SDS011;16852;51.446;6.528;2022-10-23T06:13:27;3.28;;;1.77;;
27857;SDS011;16852;51.446;6.528;2022-10-23T06:15:27;3.13;;;1.20;;
27857;SDS011;16852;51.446;6.528;2022-10-23T06:17:28;3.50;;;1.83;;
27857;SDS011;16852;51.446;6.528;2022-10-23T06:19:29;5.72;;;1.50;;
27857;SDS011;16852;51.446;6.528;2022-10-23T06:21:29;4.63;;;1.80;;
27857;SDS011;16852;51.446;6.528;2022-10-23T06:23:31;2.22;;;1.40;;
27857;SDS011;16852;51.446;6.528;2022-10-23T06:25:33;3.38;;;2.00;;
27857;SDS011;16852;51.446;6.528;2022-10-23T06:27:33;4.43;;;1.80;;
27857;SDS011;16852;51.446;6.528;2022-10-23T06:29:34;3.50;;;2.00;;
27857;SDS011;16852;51.446;6.528;2022-10-23T06:31:34;3.65;;;1.67;;
27857;SDS011;16852;51.446;6.528;2022-10-23T06:33:35;2.83;;;1.55;;
27857;SDS011;16852;51.446;6.528;2022-10-23T06:35:36;3.42;;;1.63;;
27857;SDS011;16852;51.446;6.528;2022-10-23T06:37:36;5.97;;;1.88;;
27857;SDS011;16852;51.446;6.528;2022-10-23T06:39:37;5.75;;;1.60;;
27857;SDS011;16852;51.446;6.528;2022-10-23T06:41:39;3.55;;;1.75;;
27857;SDS011;16852;51.446;6.528;2022-10-23T06:43:41;3.45;;;1.50;;
27857;SDS011;16852;51.446;6.528;2022-10-23T06:45:41;5.22;;;1.88;;
27857;SDS011;16852;51.446;6.528;2022-10-23T06:47:42;2.38;;;1.65;;
27857;SDS011;16852;51.446;6.528;2022-10-23T06:49:42;5.10;;;1.50;;
27857;SDS011;16852;51.446;6.528;2022-10-23T06:51:43;2.17;;;1.35;;
27857;SDS011;16852;51.446;6.528;2022-10-23T06:53:44;5.63;;;1.70;;
27857;SDS011;16852;51.446;6.528;2022-10-23T06:55:45;4.57;;;1.60;;
27857;SDS011;16852;51.446;6.528;2022-10-23T06:57:45;7.18;;;2.10;;
27857;SDS011;16852;51.446;6.528;2022-10-23T06:59:46;6.85;;;1.60;;
27857;SDS011;16852;51.446;6.528;2022-10-23T07:01:46;3.33;;;1.60;;
27857;SDS011;16852;51.446;6.528;2022-10-23T07:03:47;3.25;;;1.58;;
27857;SDS011;16852;51.446;6.528;2022-10-23T07:05:48;3.50;;;1.52;;
27857;SDS011;16852;51.446;6.528;2022-10-23T07:07:48;2.45;;;1.50;;
27857;SDS011;16852;51.446;6.528;2022-10-23T07:09:49;2.63;;;1.30;;
27857;SDS011;16852;51.446;6.528;2022-10-23T07:11:50;4.15;;;1.90;;
27857;SDS011;16852;51.446;6.528;2022-10-23T07:13:52;2.78;;;1.33;;
27857;SDS011;16852;51.446;6.528;2022-10-23T07:15:52;2.22;;;1.38;;
27857;SDS011;16852;51.446;6.528;2022-10-23T07:17:53;6.47;;;1.60;;
27857;SDS011;16852;51.446;6.528;2022-10-23T07:19:54;4.95;;;1.52;;
27857;SDS011;16852;51.446;6.528;2022-10-23T07:21:54;4.47;;;1.40;;
27857;SDS011;16852;51.446;6.528;2022-10-23T07:23:55;2.67;;;1.55;;
27857;SDS011;16852;51.446;6.528;2022-10-23T07:26:10;3.75;;;1.75;;
27857;SDS011;16852;51.446;6.528;2022-10-23T07:28:14;3.75;;;1.50;;
27857;SDS011;16852;51.446;6.528;2022-10-23T07:30:15;2.75;;;1.35;;
27857;SDS011;16852;51.446;6.528;2022-10-23T07:32:16;2.45;;;1.70;;
27857;SDS011;16852;51.446;6.528;2022-10-23T07:34:16;2.42;;;1.52;;
27857;SDS011;16852;51.446;6.528;2022-10-23T07:36:17;3.58;;;1.42;;
27857;SDS011;16852;51.446;6.528;2022-10-23T07:38:18;2.63;;;1.65;;
27857;SDS011;16852;51.446;6.528;2022-10-23T07:40:19;2.50;;;1.40;;
27857;SDS011;16852;51.446;6.528;2022-10-23T07:42:20;4.22;;;1.83;;
27857;SDS011;16852;51.446;6.528;2022-10-23T07:44:21;4.03;;;1.45;;
27857;SDS011;16852;51.446;6.528;2022-10-23T07:46:22;2.95;;;1.48;;
27857;SDS011;16852;51.446;6.528;2022-10-23T07:48:23;4.93;;;1.77;;
27857;SDS011;16852;51.446;6.528;2022-10-23T07:50:24;5.07;;;1.98;;
27857;SDS011;16852;51.446;6.528;2022-10-23T07:52:25;2.55;;;1.67;;
27857;SDS011;16852;51.446;6.528;2022-10-23T07:54:26;2.58;;;1.42;;
27857;SDS011;16852;51.446;6.528;2022-10-23T07:56:27;2.20;;;1.50;;
27857;SDS011;16852;51.446;6.528;2022-10-23T07:58:28;6.07;;;1.40;;
27857;SDS011;16852;51.446;6.528;2022-10-23T08:00:29;6.68;;;1.85;;
27857;SDS011;16852;51.446;6.528;2022-10-23T08:02:30;3.30;;;1.50;;
27857;SDS011;16852;51.446;6.528;2022-10-23T08:04:30;4.90;;;1.70;;
27857;SDS011;16852;51.446;6.528;2022-10-23T08:06:31;4.30;;;1.67;;
27857;SDS011;16852;51.446;6.528;2022-10-23T08:08:32;4.38;;;1.58;;
27857;SDS011;16852;51.446;6.528;2022-10-23T08:10:32;3.45;;;1.40;;
27857;SDS011;16852;51.446;6.528;2022-10-23T08:12:33;5.03;;;1.50;;
27857;SDS011;16852;51.446;6.528;2022-10-23T08:14:34;4.45;;;1.63;;
27857;SDS011;16852;51.446;6.528;2022-10-23T08:16:35;3.50;;;1.63;;
27857;SDS011;16852;51.446;6.528;2022-10-23T08:18:37;8.93;;;1.48;;
27857;SDS011;16852;51.446;6.528;2022-10-23T08:22:44;2.78;;;1.20;;
27857;SDS011;16852;51.446;6.528;2022-10-23T08:24:45;4.22;;;1.38;;
27857;SDS011;16852;51.446;6.528;2022-10-23T08:26:47;2.38;;;1.40;;
27857;SDS011;16852;51.446;6.528;2022-10-23T08:28:49;5.47;;;1.63;;
27857;SDS011;16852;51.446;6.528;2022-10-23T08:30:50;3.97;;;1.77;;
27857;SDS011;16852;51.446;6.528;2022-10-23T08:32:51;5.63;;;1.88;;
27857;SDS011;16852;51.446;6.528;2022-10-23T08:34:51;6.05;;;2.05;;
27857;SDS011;16852;51.446;6.528;2022-10-23T08:36:52;3.80;;;1.60;;
27857;SDS011;16852;51.446;6.528;2022-10-23T08:38:53;2.13;;;1.40;;
27857;SDS011;16852;51.446;6.528;2022-10-23T08:40:55;2.95;;;1.42;;
27857;SDS011;16852;51.446;6.528;2022-10-23T08:47:41;6.00;;;1.77;;
27857;SDS011;16852;51.446;6.528;2022-10-23T08:49:49;3.67;;;1.42;;
27857;SDS011;16852;51.446;6.528;2022-10-23T08:51:54;3.97;;;1.48;;
27857;SDS011;16852;51.446;6.528;2022-10-23T08:54:02;5.68;;;2.03;;
27857;SDS011;16852;51.446;6.528;2022-10-23T08:56:30;4.13;;;1.48;;
27857;SDS011;16852;51.446;6.528;2022-10-23T09:00:56;6.18;;;1.85;;
27857;SDS011;16852;51.446;6.528;2022-10-23T09:02:59;2.70;;;1.35;;
27857;SDS011;16852;51.446;6.528;2022-10-23T09:05:01;1.83;;;1.30;;
27857;SDS011;16852;51.446;6.528;2022-10-23T09:12:06;4.70;;;1.38;;
27857;SDS011;16852;51.446;6.528;2022-10-23T09:13:57;3.72;;;1.38;;
27857;SDS011;16852;51.446;6.528;2022-10-23T09:16:42;3.30;;;1.35;;
27857;SDS011;16852;51.446;6.528;2022-10-23T09:19:17;4.82;;;1.35;;
27857;SDS011;16852;51.446;6.528;2022-10-23T09:21:18;8.07;;;1.92;;
27857;SDS011;16852;51.446;6.528;2022-10-23T09:23:21;2.53;;;1.48;;
27857;SDS011;16852;51.446;6.528;2022-10-23T09:27:34;3.28;;;1.48;;
27857;SDS011;16852;51.446;6.528;2022-10-23T09:29:35;2.85;;;1.17;;
27857;SDS011;16852;51.446;6.528;2022-10-23T09:31:46;3.08;;;1.50;;
27857;SDS011;16852;51.446;6.528;2022-10-23T09:33:58;4.03;;;1.60;;
27857;SDS011;16852;51.446;6.528;2022-10-23T09:36:01;2.85;;;1.13;;
27857;SDS011;16852;51.446;6.528;2022-10-23T09:38:19;3.42;;;1.60;;
27857;SDS011;16852;51.446;6.528;2022-10-23T09:40:41;3.50;;;1.48;;
27857;SDS011;16852;51.446;6.528;2022-10-23T09:42:50;3.33;;;1.40;;
27857;SDS011;16852;51.446;6.528;2022-10-23T09:44:52;2.35;;;1.45;;
27857;SDS011;16852;51.446;6.528;2022-10-23T09:49:23;6.60;;;1.85;;
27857;SDS011;16852;51.446;6.528;2022-10-23T09:51:28;3.45;;;1.65;;
27857;SDS011;16852;51.446;6.528;2022-10-23T09:53:30;4.43;;;1.80;;
27857;SDS011;16852;51.446;6.528;2022-10-23T09:55:39;2.90;;;1.23;;
27857;SDS011;16852;51.446;6.528;2022-10-23T09:57:40;6.22;;;1.63;;
27857;SDS011;16852;51.446;6.528;2022-10-23T09:59:42;1.70;;;1.30;;
27857;SDS011;16852;51.446;6.528;2022-10-23T10:01:50;3.45;;;1.58;;
27857;SDS011;16852;51.446;6.528;2022-10-23T10:03:53;2.42;;;1.55;;
27857;SDS011;16852;51.446;6.528;2022-10-23T10:05:55;5.68;;;2.03;;
27857;SDS011;16852;51.446;6.528;2022-10-23T10:08:13;4.65;;;1.80;;
27857;SDS011;16852;51.446;6.528;2022-10-23T10:10:23;5.70;;;1.75;;
27857;SDS011;16852;51.446;6.528;2022-10-23T10:19:20;4.68;;;1.60;;
27857;SDS011;16852;51.446;6.528;2022-10-23T10:23:58;3.10;;;1.55;;
27857;SDS011;16852;51.446;6.528;2022-10-23T10:26:18;3.67;;;1.50;;
27857;SDS011;16852;51.446;6.528;2022-10-23T10:35:51;7.88;;;2.05;;
27857;SDS011;16852;51.446;6.528;2022-10-23T10:38:01;4.53;;;1.88;;
27857;SDS011;16852;51.446;6.528;2022-10-23T10:40:25;3.30;;;1.90;;
27857;SDS011;16852;51.446;6.528;2022-10-23T10:43:16;2.85;;;1.83;;
27857;SDS011;16852;51.446;6.528;2022-10-23T10:47:53;6.68;;;1.50;;
27857;SDS011;16852;51.446;6.528;2022-10-23T10:56:52;5.88;;;1.52;;
27857;SDS011;16852;51.446;6.528;2022-10-23T10:58:57;2.83;;;1.60;;
27857;SDS011;16852;51.446;6.528;2022-10-23T11:01:00;8.32;;;1.88;;
27857;SDS011;16852;51.446;6.528;2022-10-23T11:05:11;6.60;;;1.70;;
27857;SDS011;16852;51.446;6.528;2022-10-23T11:07:19;3.55;;;1.50;;
27857;SDS011;16852;51.446;6.528;2022-10-23T11:09:24;3.80;;;1.90;;
27857;SDS011;16852;51.446;6.528;2022-10-23T11:11:34;4.05;;;1.80;;
27857;SDS011;16852;51.446;6.528;2022-10-23T11:13:37;6.10;;;1.80;;
27857;SDS011;16852;51.446;6.528;2022-10-23T11:15:41;3.10;;;1.40;;
27857;SDS011;16852;51.446;6.528;2022-10-23T11:17:45;3.45;;;1.65;;
27857;SDS011;16852;51.446;6.528;2022-10-23T11:19:58;4.70;;;1.58;;
27857;SDS011;16852;51.446;6.528;2022-10-23T11:22:11;4.57;;;1.45;;
27857;SDS011;16852;51.446;6.528;2022-10-23T11:26:25;5.43;;;1.48;;
27857;SDS011;16852;51.446;6.528;2022-10-23T11:33:51;1.98;;;1.20;;
27857;SDS011;16852;51.446;6.528;2022-10-23T11:36:05;2.05;;;1.45;;
27857;SDS011;16852;51.446;6.528;2022-10-23T11:38:35;3.70;;;1.42;;
27857;SDS011;16852;51.446;6.528;2022-10-23T11:40:41;3.08;;;1.30;;
27857;SDS011;16852;51.446;6.528;2022-10-23T11:42:46;5.25;;;1.30;;
27857;SDS011;16852;51.446;6.528;2022-10-23T11:44:48;1.95;;;1.30;;
27857;SDS011;16852;51.446;6.528;2022-10-23T11:46:57;2.33;;;1.20;;
27857;SDS011;16852;51.446;6.528;2022-10-23T11:49:00;4.68;;;1.70;;
27857;SDS011;16852;51.446;6.528;2022-10-23T11:51:05;6.50;;;1.40;;
27857;SDS011;16852;51.446;6.528;2022-10-23T11:55:31;7.32;;;1.52;;
27857;SDS011;16852;51.446;6.528;2022-10-23T11:57:32;1.95;;;1.30;;
27857;SDS011;16852;51.446;6.528;2022-10-23T11:59:34;2.88;;;1.38;;
27857;SDS011;16852;51.446;6.528;2022-10-23T12:01:55;2.88;;;1.13;;
27857;SDS011;16852;51.446;6.528;2022-10-23T12:04:05;3.95;;;1.27;;
27857;SDS011;16852;51.446;6.528;2022-10-23T12:06:23;5.10;;;1.30;;
27857;SDS011;16852;51.446;6.528;2022-10-23T12:08:31;3.60;;;1.48;;
27857;SDS011;16852;51.446;6.528;2022-10-23T12:10:35;3.38;;;1.23;;
27857;SDS011;16852;51.446;6.528;2022-10-23T12:12:53;3.28;;;1.23;;
27857;SDS011;16852;51.446;6.528;2022-10-23T12:19:22;2.60;;;1.02;;
27857;SDS011;16852;51.446;6.528;2022-10-23T12:21:25;2.03;;;1.30;;
27857;SDS011;16852;51.446;6.528;2022-10-23T12:23:38;2.53;;;1.17;;
27857;SDS011;16852;51.446;6.528;2022-10-23T12:28:33;3.90;;;1.40;;
27857;SDS011;16852;51.446;6.528;2022-10-23T12:30:44;2.95;;;1.23;;
27857;SDS011;16852;51.446;6.528;2022-10-23T12:39:35;3.28;;;1.40;;
27857;SDS011;16852;51.446;6.528;2022-10-23T12:41:37;2.67;;;1.50;;
27857;SDS011;16852;51.446;6.528;2022-10-23T12:43:38;3.65;;;1.40;;
27857;SDS011;16852;51.446;6.528;2022-10-23T12:45:41;3.50;;;1.40;;
27857;SDS011;16852;51.446;6.528;2022-10-23T12:47:43;3.97;;;1.40;;
27857;SDS011;16852;51.446;6.528;2022-10-23T12:49:48;3.63;;;1.52;;
27857;SDS011;16852;51.446;6.528;2022-10-23T12:52:00;5.28;;;1.58;;
27857;SDS011;16852;51.446;6.528;2022-10-23T12:54:18;4.10;;;1.58;;
27857;SDS011;16852;51.446;6.528;2022-10-23T12:56:20;3.08;;;1.10;;
27857;SDS011;16852;51.446;6.528;2022-10-23T12:58:22;5.03;;;1.58;;
27857;SDS011;16852;51.446;6.528;2022-10-23T13:00:30;4.40;;;1.15;;
27857;SDS011;16852;51.446;6.528;2022-10-23T13:02:31;3.38;;;1.30;;
27857;SDS011;16852;51.446;6.528;2022-10-23T13:04:33;3.65;;;1.13;;
27857;SDS011;16852;51.446;6.528;2022-10-23T13:06:34;6.35;;;1.40;;
27857;SDS011;16852;51.446;6.528;2022-10-23T13:08:38;3.08;;;1.42;;
27857;SDS011;16852;51.446;6.528;2022-10-23T13:10:41;2.13;;;1.10;;
27857;SDS011;16852;51.446;6.528;2022-10-23T13:12:42;4.15;;;1.60;;
27857;SDS011;16852;51.446;6.528;2022-10-23T13:17:08;2.38;;;1.27;;
27857;SDS011;16852;51.446;6.528;2022-10-23T13:19:21;6.47;;;1.50;;
27857;SDS011;16852;51.446;6.528;2022-10-23T13:23:26;4.13;;;1.23;;
27857;SDS011;16852;51.446;6.528;2022-10-23T13:25:31;3.97;;;1.40;;
27857;SDS011;16852;51.446;6.528;2022-10-23T13:27:33;3.42;;;1.40;;
27857;SDS011;16852;51.446;6.528;2022-10-23T13:29:34;3.40;;;1.55;;
27857;SDS011;16852;51.446;6.528;2022-10-23T13:31:35;2.80;;;1.52;;
27857;SDS011;16852;51.446;6.528;2022-10-23T13:33:46;1.90;;;1.40;;
27857;SDS011;16852;51.446;6.528;2022-10-23T13:36:03;2.30;;;1.48;;
27857;SDS011;16852;51.446;6.528;2022-10-23T13:38:07;2.42;;;1.13;;
27857;SDS011;16852;51.446;6.528;2022-10-23T13:40:24;3.75;;;1.58;;
27857;SDS011;16852;51.446;6.528;2022-10-23T13:42:26;2.33;;;1.20;;
27857;SDS011;16852;51.446;6.528;2022-10-23T13:44:27;3.10;;;1.50;;
27857;SDS011;16852;51.446;6.528;2022-10-23T13:46:27;4.18;;;1.60;;
27857;SDS011;16852;51.446;6.528;2022-10-23T13:48:28;4.95;;;1.40;;
27857;SDS011;16852;51.446;6.528;2022-10-23T13:50:29;1.45;;;1.30;;
27857;SDS011;16852;51.446;6.528;2022-10-23T13:52:30;2.90;;;1.30;;
27857;SDS011;16852;51.446;6.528;2022-10-23T13:54:30;3.38;;;1.58;;
27857;SDS011;16852;51.446;6.528;2022-10-23T13:56:31;3.35;;;1.52;;
27857;SDS011;16852;51.446;6.528;2022-10-23T13:58:31;3.35;;;1.65;;
27857;SDS011;16852;51.446;6.528;2022-10-23T14:00:32;3.35;;;1.45;;
27857;SDS011;16852;51.446;6.528;2022-10-23T14:02:32;3.03;;;1.50;;
27857;SDS011;16852;51.446;6.528;2022-10-23T14:04:33;6.10;;;1.75;;
27857;SDS011;16852;51.446;6.528;2022-10-23T14:06:34;3.10;;;1.50;;
27857;SDS011;16852;51.446;6.528;2022-10-23T14:08:36;4.95;;;1.60;;
27857;SDS011;16852;51.446;6.528;2022-10-23T14:10:37;4.03;;;1.40;;